createdAt,value
2022-08-09T00:02:31.130Z,2.30
2022-08-09T00:05:03.725Z,2.83
2022-08-09T00:07:45.462Z,2.37
2022-08-09T00:10:21.244Z,2.30
2022-08-09T00:12:52.265Z,2.63
2022-08-09T00:15:26.546Z,2.30
2022-08-09T00:18:04.573Z,2.70
2022-08-09T00:20:36.901Z,2.33
2022-08-09T00:23:56.599Z,2.30
2022-08-09T00:25:54.784Z,2.47
2022-08-09T00:28:23.427Z,2.37
2022-08-09T00:30:55.620Z,2.70
2022-08-09T00:33:32.631Z,2.67
2022-08-09T00:36:08.967Z,2.80
2022-08-09T00:38:35.572Z,2.50
2022-08-09T00:41:03.391Z,2.77
2022-08-09T00:44:16.317Z,2.57
2022-08-09T00:46:44.119Z,2.63
2022-08-09T00:49:10.952Z,2.47
2022-08-09T00:51:54.201Z,3.10
2022-08-09T00:54:21.635Z,2.60
2022-08-09T00:56:57.968Z,2.23
2022-08-09T00:59:40.355Z,2.50
2022-08-09T01:06:17.805Z,2.93
2022-08-09T01:09:11.802Z,2.40
2022-08-09T01:11:53.436Z,2.73
2022-08-09T01:14:33.382Z,2.07
2022-08-09T01:17:10.874Z,3.10
2022-08-09T01:19:57.067Z,2.90
2022-08-09T01:24:00.541Z,2.60
2022-08-09T01:26:19.296Z,3.00
2022-08-09T01:28:50.280Z,2.50
2022-08-09T01:31:23.416Z,3.40
2022-08-09T01:34:10.175Z,2.80
2022-08-09T01:36:38.677Z,2.67
2022-08-09T01:39:06.791Z,3.00
2022-08-09T01:41:36.229Z,2.60
2022-08-09T01:44:05.500Z,3.10
2022-08-09T01:46:38.193Z,2.57
2022-08-09T01:49:12.901Z,2.50
2022-08-09T01:51:53.551Z,2.90
2022-08-09T01:54:41.964Z,2.60
2022-08-09T01:57:19.011Z,3.07
2022-08-09T01:59:52.547Z,3.60
2022-08-09T02:02:31.125Z,2.93
2022-08-09T02:05:05.434Z,3.10
2022-08-09T02:08:38.706Z,3.10
2022-08-09T02:10:38.352Z,2.63
2022-08-09T02:13:08.687Z,3.17
2022-08-09T02:15:49.311Z,3.47
2022-08-09T02:18:25.138Z,2.70
2022-08-09T02:20:58.822Z,3.23
2022-08-09T02:23:42.838Z,3.50
2022-08-09T02:26:25.253Z,3.13
2022-08-09T02:29:15.672Z,2.77
2022-08-09T02:31:46.328Z,2.97
2022-08-09T02:34:38.608Z,2.80
2022-08-09T02:37:09.189Z,3.13
2022-08-09T02:39:49.968Z,3.90
2022-08-09T02:42:33.283Z,2.83
2022-08-09T02:45:09.357Z,3.20
2022-08-09T02:47:57.314Z,3.23
2022-08-09T02:50:33.096Z,3.23
2022-08-09T02:53:07.757Z,3.50
2022-08-09T02:55:57.267Z,4.07
2022-08-09T02:58:37.008Z,3.20
2022-08-09T03:01:08.277Z,3.23
2022-08-09T03:04:17.390Z,3.33
2022-08-09T03:06:29.128Z,3.60
2022-08-09T03:09:00.270Z,3.70
2022-08-09T03:11:29.943Z,4.00
2022-08-09T03:14:16.794Z,3.40
2022-08-09T03:16:48.111Z,3.50
2022-08-09T03:19:52.769Z,3.90
2022-08-09T03:22:12.143Z,3.50
2022-08-09T03:24:52.268Z,3.70
2022-08-09T03:27:21.593Z,3.93
2022-08-09T03:29:58.226Z,3.57
2022-08-09T03:32:31.115Z,3.77
2022-08-09T03:34:59.553Z,3.83
2022-08-09T03:37:55.566Z,3.30
2022-08-09T03:40:14.510Z,4.10
2022-08-09T03:42:45.012Z,3.60
2022-08-09T03:45:11.817Z,4.07
2022-08-09T03:47:40.183Z,4.00
2022-08-09T03:50:10.847Z,3.53
2022-08-09T03:52:41.791Z,4.07
2022-08-09T03:55:11.229Z,4.20
2022-08-09T03:57:44.795Z,3.33
2022-08-09T04:00:29.230Z,4.03
2022-08-09T04:02:58.829Z,4.40
2022-08-09T04:05:27.820Z,4.30
2022-08-09T04:07:57.572Z,4.27
2022-08-09T04:10:30.212Z,4.43
2022-08-09T04:13:01.365Z,4.03
2022-08-09T04:16:18.063Z,4.40
2022-08-09T04:18:19.468Z,4.10
2022-08-09T04:20:48.747Z,4.43
2022-08-09T04:23:17.302Z,4.23
2022-08-09T04:25:45.008Z,4.27
2022-08-09T04:28:33.122Z,4.50
2022-08-09T04:31:01.000Z,4.03
2022-08-09T04:33:52.157Z,3.70
2022-08-09T04:36:27.333Z,4.40
2022-08-09T04:38:59.320Z,4.10
2022-08-09T04:41:33.026Z,3.90
2022-08-09T04:44:06.361Z,4.17
2022-08-09T04:46:58.153Z,4.10
2022-08-09T04:49:22.297Z,4.17
2022-08-09T04:52:07.845Z,4.13
2022-08-09T04:54:36.435Z,4.00
2022-08-09T04:57:03.869Z,3.77
2022-08-09T04:59:30.914Z,3.90
2022-08-09T05:01:57.613Z,4.10
2022-08-09T05:04:30.643Z,3.83
2022-08-09T05:06:58.546Z,4.43
2022-08-09T05:09:25.151Z,4.37
2022-08-09T05:12:09.587Z,4.87
2022-08-09T05:14:37.849Z,4.63
2022-08-09T05:17:15.285Z,4.57
2022-08-09T05:19:56.724Z,4.00
2022-08-09T05:22:35.904Z,4.73
2022-08-09T05:25:10.810Z,4.43
2022-08-09T05:27:39.045Z,4.90
2022-08-09T05:30:14.319Z,3.53
2022-08-09T05:32:42.040Z,4.37
2022-08-09T05:35:11.297Z,5.03
2022-08-09T05:37:47.511Z,4.60
2022-08-09T05:40:15.232Z,4.23
2022-08-09T05:42:42.924Z,4.00
2022-08-09T05:45:10.780Z,5.20
2022-08-09T05:47:52.387Z,5.20
2022-08-09T05:50:39.762Z,4.53
2022-08-09T05:53:31.656Z,4.10
2022-08-09T05:55:58.432Z,4.40
2022-08-09T05:58:25.069Z,4.03
2022-08-09T06:00:53.366Z,4.80
2022-08-09T06:03:20.572Z,4.33
2022-08-09T06:05:57.245Z,3.90
2022-08-09T06:08:29.609Z,5.17
2022-08-09T06:10:59.225Z,4.07
2022-08-09T06:13:28.621Z,4.07
2022-08-09T06:16:01.742Z,4.27
2022-08-09T06:18:32.416Z,3.93
2022-08-09T06:20:59.473Z,3.93
2022-08-09T06:23:57.874Z,3.87
2022-08-09T06:26:21.185Z,4.33
2022-08-09T06:29:00.299Z,4.13
2022-08-09T06:31:30.801Z,3.90
2022-08-09T06:33:58.318Z,4.33
2022-08-09T06:36:27.255Z,3.70
2022-08-09T06:38:57.033Z,3.03
2022-08-09T06:41:24.927Z,4.20
2022-08-09T06:44:14.243Z,4.27
2022-08-09T06:46:45.366Z,3.73
2022-08-09T06:49:12.626Z,4.53
2022-08-09T06:51:49.151Z,3.50
2022-08-09T06:54:15.787Z,3.40
2022-08-09T06:56:46.290Z,3.30
2022-08-09T07:00:57.038Z,3.53
2022-08-09T07:02:04.800Z,4.17
2022-08-09T07:04:31.931Z,3.50
2022-08-09T07:07:00.390Z,3.50
2022-08-09T07:09:56.022Z,3.83
2022-08-09T07:12:17.947Z,3.77
2022-08-09T07:14:51.138Z,4.00
2022-08-09T07:17:19.919Z,3.33
2022-08-09T07:19:47.904Z,3.70
2022-08-09T07:22:17.440Z,4.00
2022-08-09T07:24:49.563Z,2.67
2022-08-09T07:27:33.651Z,3.80
2022-08-09T07:30:02.148Z,3.40
2022-08-09T07:32:32.819Z,3.33
2022-08-09T07:35:12.043Z,2.93
2022-08-09T07:37:42.769Z,3.10
2022-08-09T07:40:17.166Z,3.40
2022-08-09T07:43:03.377Z,3.30
2022-08-09T07:45:41.761Z,2.73
2022-08-09T07:48:25.384Z,3.60
2022-08-09T07:51:09.935Z,3.40
2022-08-09T07:54:06.607Z,3.33
2022-08-09T07:56:33.592Z,2.90
2022-08-09T07:59:00.216Z,3.30
2022-08-09T08:01:33.083Z,3.30
2022-08-09T08:04:02.308Z,2.10
2022-08-09T08:06:31.801Z,2.10
2022-08-09T08:09:04.590Z,2.80
2022-08-09T08:12:09.796Z,2.80
2022-08-09T08:14:18.944Z,3.37
2022-08-09T08:17:01.101Z,3.13
2022-08-09T08:19:34.739Z,3.47
2022-08-09T08:22:01.745Z,3.33
2022-08-09T08:24:32.294Z,2.53
2022-08-09T08:27:16.303Z,3.03
2022-08-09T08:29:48.751Z,3.20
2022-08-09T08:32:24.573Z,3.33
2022-08-09T08:34:59.000Z,3.10
2022-08-09T08:37:26.698Z,3.30
2022-08-09T08:40:09.383Z,2.00
2022-08-09T08:42:38.208Z,3.00
2022-08-09T08:45:13.791Z,2.50
2022-08-09T08:47:42.819Z,2.70
2022-08-09T08:50:15.513Z,3.60
2022-08-09T08:52:58.498Z,2.63
2022-08-09T08:55:27.185Z,2.80
2022-08-09T08:57:58.293Z,3.50
2022-08-09T09:00:30.524Z,2.33
2022-08-09T09:03:11.233Z,2.47
2022-08-09T09:05:58.415Z,3.20
2022-08-09T09:08:31.808Z,4.03
2022-08-09T09:11:04.234Z,3.57
2022-08-09T09:13:47.238Z,3.57
2022-08-09T09:16:30.931Z,3.00
2022-08-09T09:22:26.869Z,6.43
2022-08-09T09:26:01.306Z,3.70
2022-08-09T09:28:05.507Z,3.80
2022-08-09T09:30:41.347Z,3.40
2022-08-09T09:33:15.308Z,3.40
2022-08-09T09:36:02.679Z,3.80
2022-08-09T09:38:53.075Z,3.50
2022-08-09T09:41:32.870Z,7.20
2022-08-09T09:44:11.599Z,3.80
2022-08-09T09:46:51.594Z,4.70
2022-08-09T09:49:32.299Z,3.70
2022-08-09T09:52:16.259Z,3.43
2022-08-09T09:55:24.451Z,3.37
2022-08-09T09:58:19.194Z,3.20
2022-08-09T10:00:54.597Z,3.43
2022-08-09T10:03:40.137Z,3.00
2022-08-09T10:06:07.122Z,3.50
2022-08-09T10:08:54.199Z,3.47
2022-08-09T10:12:01.412Z,2.97
2022-08-09T10:14:33.164Z,3.10
2022-08-09T10:17:50.876Z,3.27
2022-08-09T10:19:58.938Z,3.00
2022-08-09T10:22:34.694Z,3.00
2022-08-09T10:25:10.968Z,2.90
2022-08-09T10:27:56.919Z,2.87
2022-08-09T10:34:07.935Z,2.87
2022-08-09T10:36:01.278Z,2.50
2022-08-09T10:38:55.510Z,2.83
2022-08-09T10:41:18.668Z,2.60
2022-08-09T10:43:58.766Z,3.00
2022-08-09T10:46:57.777Z,2.57
2022-08-09T10:49:51.698Z,2.83
2022-08-09T10:52:29.164Z,2.60
2022-08-09T10:55:02.771Z,2.90
2022-08-09T10:57:37.746Z,2.70
2022-08-09T11:00:35.809Z,3.03
2022-08-09T11:03:46.777Z,2.20
2022-08-09T11:06:21.118Z,2.60
2022-08-09T11:08:53.048Z,2.80
2022-08-09T11:11:21.982Z,2.60
2022-08-09T11:14:28.187Z,2.30
2022-08-09T11:16:55.998Z,2.60
2022-08-09T11:20:12.651Z,2.77
2022-08-09T11:22:45.018Z,2.57
2022-08-09T11:25:26.136Z,2.60
2022-08-09T11:28:34.513Z,2.87
2022-08-09T11:31:50.196Z,2.60
2022-08-09T11:34:36.149Z,2.50
2022-08-09T11:37:07.164Z,2.47
2022-08-09T11:40:01.655Z,2.47
2022-08-09T11:42:40.787Z,2.80
2022-08-09T11:45:42.196Z,2.57
2022-08-09T11:48:24.934Z,2.70
2022-08-09T11:52:56.780Z,2.50
2022-08-09T11:54:27.589Z,2.67
2022-08-09T11:58:02.475Z,2.90
2022-08-09T12:00:33.769Z,2.90
2022-08-09T12:03:50.568Z,3.17
2022-08-09T12:05:49.017Z,2.60
2022-08-09T12:08:21.609Z,3.07
2022-08-09T12:10:52.926Z,2.70
2022-08-09T12:14:07.017Z,2.77
2022-08-09T12:16:38.376Z,2.90
2022-08-09T12:19:09.164Z,3.10
2022-08-09T12:21:39.253Z,2.20
2022-08-09T12:24:22.348Z,2.53
2022-08-09T12:28:59.247Z,3.03
2022-08-09T12:29:52.487Z,3.00
2022-08-09T12:32:26.960Z,3.40
2022-08-09T12:35:04.595Z,2.50
2022-08-09T12:37:50.741Z,3.60
2022-08-09T12:40:21.048Z,3.43
2022-08-09T12:42:50.446Z,3.20
2022-08-09T12:45:34.471Z,2.90
2022-08-09T12:48:10.709Z,2.30
2022-08-09T12:50:47.849Z,2.40
2022-08-09T12:53:56.214Z,2.50
2022-08-09T12:56:39.597Z,2.30
2022-08-09T12:59:15.123Z,2.63
2022-08-09T13:01:49.103Z,3.03
2022-08-09T13:04:36.360Z,2.77
2022-08-09T13:07:19.610Z,2.80
2022-08-09T13:09:55.166Z,3.37
2022-08-09T13:12:30.265Z,3.27
2022-08-09T13:15:08.078Z,2.67
2022-08-09T13:17:58.792Z,2.40
2022-08-09T13:20:37.214Z,4.20
2022-08-09T13:24:17.050Z,4.40
2022-08-09T13:25:54.723Z,3.70
2022-08-09T13:28:33.837Z,3.53
2022-08-09T13:32:17.416Z,2.73
2022-08-09T13:33:58.874Z,3.23
2022-08-09T13:36:40.706Z,2.43
2022-08-09T13:41:46.434Z,3.53
2022-08-09T13:42:10.994Z,2.10
2022-08-09T13:44:42.120Z,3.77
2022-08-09T13:47:26.788Z,2.53
2022-08-09T13:50:01.415Z,2.70
2022-08-09T13:52:29.901Z,2.73
2022-08-09T13:55:00.935Z,3.30
2022-08-09T13:57:39.696Z,3.03
2022-08-09T14:00:28.335Z,2.57
2022-08-09T14:03:04.373Z,2.60
2022-08-09T14:05:59.218Z,2.70
2022-08-09T14:08:30.064Z,3.10
2022-08-09T14:10:57.323Z,2.30
2022-08-09T14:14:15.857Z,3.83
2022-08-09T14:16:15.092Z,2.37
2022-08-09T14:18:45.714Z,2.80
2022-08-09T14:21:17.955Z,5.10
2022-08-09T14:23:55.232Z,2.83
2022-08-09T14:26:30.262Z,2.33
2022-08-09T14:29:03.642Z,2.40
2022-08-09T14:31:49.842Z,2.90
2022-08-09T14:34:27.295Z,3.27
2022-08-09T14:37:06.147Z,4.17
2022-08-09T14:39:45.090Z,4.07
2022-08-09T14:42:30.166Z,3.67
2022-08-09T14:44:59.873Z,2.20
2022-08-09T14:47:45.338Z,2.47
2022-08-09T14:50:16.252Z,2.30
2022-08-09T14:52:49.989Z,2.73
2022-08-09T14:55:19.929Z,2.60
2022-08-09T14:57:47.710Z,3.30
2022-08-09T15:00:16.142Z,2.10
2022-08-09T15:02:42.873Z,2.50
2022-08-09T15:05:16.124Z,2.20
2022-08-09T15:07:45.403Z,2.27
2022-08-09T15:10:21.652Z,2.37
2022-08-09T15:12:52.345Z,2.40
2022-08-09T15:15:19.023Z,2.10
2022-08-09T15:17:51.778Z,2.67
2022-08-09T15:22:00.667Z,2.23
2022-08-09T15:23:55.883Z,3.10
2022-08-09T15:25:55.688Z,2.50
2022-08-09T15:28:28.509Z,2.27
2022-08-09T15:31:13.387Z,2.37
2022-08-09T15:34:17.440Z,2.33
2022-08-09T15:36:30.924Z,2.90
2022-08-09T15:38:58.813Z,2.87
2022-08-09T15:41:31.245Z,2.70
2022-08-09T15:44:02.601Z,1.90
2022-08-09T15:46:34.373Z,2.63
2022-08-09T15:49:22.627Z,2.10
2022-08-09T15:52:03.230Z,2.20
2022-08-09T15:54:52.664Z,2.67
2022-08-09T15:57:34.711Z,2.90
2022-08-09T16:00:14.795Z,2.10
2022-08-09T16:02:53.483Z,2.23
2022-08-09T16:05:23.645Z,2.37
2022-08-09T16:07:50.848Z,2.20
2022-08-09T16:10:55.030Z,2.30
2022-08-09T16:13:05.329Z,1.97
2022-08-09T16:16:11.826Z,1.77
2022-08-09T16:18:34.873Z,2.10
2022-08-09T16:21:01.457Z,2.00
2022-08-09T16:23:28.225Z,2.50
2022-08-09T16:26:00.796Z,2.27
2022-08-09T16:28:29.486Z,2.07
2022-08-09T16:30:59.367Z,2.40
2022-08-09T16:33:26.916Z,2.10
2022-08-09T16:35:58.133Z,2.30
2022-08-09T16:38:27.476Z,2.20
2022-08-09T16:40:54.498Z,1.63
2022-08-09T16:43:23.047Z,2.07
2022-08-09T16:45:53.391Z,1.90
2022-08-09T16:48:40.920Z,2.10
2022-08-09T16:51:13.632Z,2.50
2022-08-09T16:54:02.422Z,2.27
2022-08-09T16:56:30.778Z,2.10
2022-08-09T16:58:58.235Z,1.93
2022-08-09T17:01:25.780Z,2.83
2022-08-09T17:03:53.295Z,1.93
2022-08-09T17:06:31.898Z,2.13
2022-08-09T17:09:17.885Z,2.20
2022-08-09T17:11:51.380Z,1.63
2022-08-09T17:14:26.577Z,2.10
2022-08-09T17:16:55.946Z,1.73
2022-08-09T17:19:22.549Z,2.30
2022-08-09T17:21:54.437Z,1.57
2022-08-09T17:24:30.624Z,1.50
2022-08-09T17:26:58.183Z,1.60
2022-08-09T17:29:25.289Z,1.90
2022-08-09T17:32:00.814Z,1.60
2022-08-09T17:35:07.454Z,2.07
2022-08-09T17:37:19.598Z,2.73
2022-08-09T17:39:53.222Z,2.37
2022-08-09T17:42:41.485Z,1.80
2022-08-09T17:45:23.816Z,1.80
2022-08-09T17:48:02.603Z,1.90
2022-08-09T17:50:36.878Z,1.67
2022-08-09T17:53:19.275Z,1.80
2022-08-09T17:55:50.242Z,1.73
2022-08-09T17:58:18.959Z,2.07
2022-08-09T18:00:47.964Z,1.90
2022-08-09T18:03:15.386Z,2.83
2022-08-09T18:05:44.807Z,2.17
2022-08-09T18:08:13.321Z,2.20
2022-08-09T18:10:45.970Z,2.80
2022-08-09T18:13:43.191Z,2.40
2022-08-09T18:16:09.310Z,1.93
2022-08-09T18:18:36.334Z,2.10
2022-08-09T18:21:21.465Z,2.10
2022-08-09T18:24:11.543Z,1.87
2022-08-09T18:26:37.904Z,1.97
2022-08-09T18:30:40.621Z,2.57
2022-08-09T18:31:55.672Z,2.10
2022-08-09T18:34:23.901Z,2.10
2022-08-09T18:36:50.951Z,2.37
2022-08-09T18:39:22.175Z,2.30
2022-08-09T18:41:53.395Z,2.10
2022-08-09T18:44:26.564Z,1.90
2022-08-09T18:47:05.032Z,2.17
2022-08-09T18:49:43.448Z,1.63
2022-08-09T18:52:16.093Z,2.03
2022-08-09T18:54:52.182Z,1.97
2022-08-09T18:57:22.416Z,1.70
2022-08-09T18:59:55.080Z,1.50
2022-08-09T19:02:31.854Z,1.63
2022-08-09T19:05:19.747Z,1.53
2022-08-09T19:08:04.298Z,1.73
2022-08-09T19:10:39.360Z,1.50
2022-08-09T19:13:22.235Z,1.67
2022-08-09T19:15:51.277Z,2.00
2022-08-09T19:18:33.367Z,1.50
2022-08-09T19:21:03.324Z,1.50
2022-08-09T19:24:35.889Z,1.30
2022-08-09T19:26:19.392Z,1.40
2022-08-09T19:29:01.350Z,1.50
2022-08-09T19:31:30.518Z,1.63
2022-08-09T19:34:21.370Z,1.60
2022-08-09T19:36:50.877Z,1.60
2022-08-09T19:39:17.574Z,1.60
2022-08-09T19:41:48.559Z,1.60
2022-08-09T19:44:17.682Z,1.80
2022-08-09T19:46:49.329Z,1.60
2022-08-09T19:50:06.678Z,1.67
2022-08-09T19:52:04.664Z,2.10
2022-08-09T19:54:31.437Z,1.90
2022-08-09T19:56:58.959Z,1.50
2022-08-09T19:59:57.452Z,1.67
2022-08-09T20:04:07.235Z,1.50
2022-08-09T20:05:10.299Z,1.83
2022-08-09T20:07:59.545Z,1.77
2022-08-09T20:10:36.888Z,2.07
2022-08-09T20:13:05.523Z,1.70
2022-08-09T20:16:35.104Z,1.57
2022-08-09T20:18:20.201Z,2.00
2022-08-09T20:20:51.014Z,1.70
2022-08-09T20:23:19.379Z,1.90
2022-08-09T20:25:52.079Z,1.60
2022-08-09T20:28:27.542Z,1.77
2022-08-09T20:31:02.644Z,1.50
2022-08-09T20:33:38.980Z,1.30
2022-08-09T20:36:10.642Z,2.00
2022-08-09T20:41:35.003Z,1.90
2022-08-09T20:44:02.589Z,1.87
2022-08-09T20:46:43.374Z,1.60
2022-08-09T20:49:16.104Z,1.40
2022-08-09T20:51:50.717Z,1.70
2022-08-09T20:54:18.112Z,1.60
2022-08-09T20:56:46.818Z,1.53
2022-08-09T20:59:17.098Z,1.67
2022-08-09T21:01:49.818Z,1.80
2022-08-09T21:05:52.594Z,1.90
2022-08-09T21:07:11.360Z,1.83
2022-08-09T21:09:45.730Z,1.40
2022-08-09T21:14:48.403Z,1.83
2022-08-09T21:18:11.942Z,2.00
2022-08-09T21:20:18.782Z,1.83
2022-08-09T21:22:53.854Z,1.50
2022-08-09T21:25:44.185Z,1.60
2022-08-09T21:28:33.290Z,2.00
2022-08-09T21:31:16.440Z,1.97
2022-08-09T21:33:45.970Z,1.50
2022-08-09T21:36:18.087Z,1.50
2022-08-09T21:38:45.609Z,1.60
2022-08-09T21:41:17.744Z,1.47
2022-08-09T21:43:57.552Z,1.40
2022-08-09T21:46:24.926Z,1.97
2022-08-09T21:48:52.237Z,1.60
2022-08-09T21:51:24.431Z,1.40
2022-08-09T21:54:03.171Z,1.70
2022-08-09T21:56:43.043Z,1.90
2022-08-09T21:59:11.623Z,1.77
2022-08-09T22:01:59.361Z,2.10
2022-08-09T22:04:57.363Z,1.90
2022-08-09T22:07:35.341Z,1.70
2022-08-09T22:10:05.273Z,1.90
2022-08-09T22:12:32.174Z,1.90
2022-08-09T22:14:59.139Z,1.77
2022-08-09T22:17:27.656Z,1.53
2022-08-09T22:20:00.625Z,1.60
2022-08-09T22:22:29.104Z,1.53
2022-08-09T22:26:07.646Z,1.73
2022-08-09T22:27:42.413Z,1.87
2022-08-09T22:30:10.156Z,1.60
2022-08-09T22:32:37.432Z,1.47
2022-08-09T22:35:06.889Z,1.50
2022-08-09T22:38:06.669Z,1.70
2022-08-09T22:40:35.001Z,1.70
2022-08-09T22:43:16.113Z,1.60
2022-08-09T22:48:15.375Z,1.60
2022-08-09T22:48:36.518Z,1.90
2022-08-09T22:51:10.688Z,1.90
2022-08-09T22:54:01.082Z,2.10
2022-08-09T22:56:33.276Z,1.97
2022-08-09T22:59:05.815Z,1.80
2022-08-09T23:01:48.588Z,2.07
2022-08-09T23:04:15.286Z,1.70
2022-08-09T23:07:02.388Z,1.90
2022-08-09T23:09:28.970Z,1.93
2022-08-09T23:11:55.774Z,1.90
2022-08-09T23:14:37.379Z,2.07
2022-08-09T23:17:09.188Z,1.80
2022-08-09T23:20:06.389Z,1.80
2022-08-09T23:22:22.399Z,2.03
2022-08-09T23:24:49.253Z,1.90
2022-08-09T23:27:16.053Z,2.07
2022-08-09T23:29:42.849Z,2.47
2022-08-09T23:32:09.501Z,1.70
2022-08-09T23:34:36.683Z,2.30
2022-08-09T23:37:04.268Z,2.13
2022-08-09T23:39:30.947Z,1.77
2022-08-09T23:41:57.539Z,2.13
2022-08-09T23:44:24.145Z,2.07
2022-08-09T23:46:56.049Z,1.87
2022-08-09T23:49:25.154Z,2.37
2022-08-09T23:51:52.925Z,2.30
2022-08-09T23:54:19.934Z,2.33
2022-08-09T23:56:54.295Z,2.53
2022-08-09T23:59:23.107Z,2.30
